Time;durP1;ratioP1;P1;durP2;ratioP2;P2;SDS_P1;SDS_P2;PMS_P1;PMS_P2;Temp;Humidity;BMP_temperature;BMP_pressure;BME280_temperature;BME280_humidity;BME280_pressure;Samples;Min_cycle;Max_cycle;Signal;HPM_P1;HPM_P2
2021/07/03 00:01:14;;;;;;;5.32;3.47;;;18.50;75.30;;;;;;5023768;28;20038;-79
2021/07/03 00:03:40;;;;;;;7.15;3.95;;;18.50;75.40;;;;;;5007297;28;20022;-81
2021/07/03 00:06:06;;;;;;;7.88;4.60;;;18.60;75.40;;;;;;5040449;28;20022;-79
2021/07/03 00:08:32;;;;;;;5.68;3.58;;;18.60;75.30;;;;;;5040438;28;20037;-80
2021/07/03 00:10:59;;;;;;;7.93;3.75;;;18.60;75.20;;;;;;5040475;28;20396;-80
2021/07/03 00:13:26;;;;;;;5.93;4.03;;;18.60;75.40;;;;;;5024127;28;20037;-79
2021/07/03 00:15:52;;;;;;;7.38;4.32;;;18.60;75.40;;;;;;5007178;28;20046;-79
2021/07/03 00:18:17;;;;;;;5.32;3.83;;;18.60;75.60;;;;;;5040312;28;20036;-78
2021/07/03 00:20:43;;;;;;;7.03;4.25;;;18.60;75.80;;;;;;5023589;28;20057;-79
2021/07/03 00:23:09;;;;;;;8.10;4.72;;;18.60;76.00;;;;;;5007414;28;20041;-81
2021/07/03 00:25:36;;;;;;;8.48;4.35;;;18.50;76.30;;;;;;5023676;28;20022;-81
2021/07/03 00:28:02;;;;;;;6.15;4.35;;;18.50;76.40;;;;;;5040214;28;20033;-79
2021/07/03 00:30:28;;;;;;;5.05;4.47;;;18.50;76.50;;;;;;5007140;28;20022;-80
2021/07/03 00:32:54;;;;;;;8.68;4.38;;;18.50;76.70;;;;;;5008462;28;20067;-80
2021/07/03 00:35:20;;;;;;;5.55;3.83;;;18.50;76.80;;;;;;5040196;28;20026;-79
2021/07/03 00:37:46;;;;;;;6.85;4.72;;;18.50;76.90;;;;;;5040367;28;20030;-80
2021/07/03 00:40:12;;;;;;;7.03;4.53;;;18.50;77.00;;;;;;5007163;28;20026;-79
2021/07/03 00:42:38;;;;;;;5.55;4.30;;;18.40;77.10;;;;;;5007385;28;20077;-79
2021/07/03 00:45:05;;;;;;;7.22;3.70;;;18.40;77.30;;;;;;5008489;28;20026;-81
2021/07/03 00:47:31;;;;;;;6.18;4.10;;;18.30;77.60;;;;;;5008498;28;20060;-78
2021/07/03 00:49:57;;;;;;;5.20;3.75;;;18.30;77.80;;;;;;5039916;28;20049;-80
2021/07/03 00:52:23;;;;;;;7.38;3.90;;;18.20;77.90;;;;;;5039945;28;20499;-79
2021/07/03 00:54:49;;;;;;;5.40;4.47;;;18.20;78.10;;;;;;5023562;28;20076;-79
2021/07/03 00:57:16;;;;;;;9.50;4.72;;;18.30;78.30;;;;;;5023294;28;20029;-79
2021/07/03 00:59:44;;;;;;;7.68;3.97;;;18.30;78.20;;;;;;5023273;28;20034;-81
2021/07/03 01:02:11;;;;;;;5.50;4.03;;;18.40;78.20;;;;;;5039608;28;20026;-80
2021/07/03 01:04:38;;;;;;;6.80;4.25;;;18.40;78.10;;;;;;5023425;28;20036;-79
2021/07/03 01:07:06;;;;;;;6.18;4.05;;;18.40;78.10;;;;;;5023502;28;20387;-81
2021/07/03 01:09:32;;;;;;;8.27;4.63;;;18.40;78.20;;;;;;5008130;28;20032;-80
2021/07/03 01:11:58;;;;;;;6.63;3.72;;;18.40;78.20;;;;;;5039982;28;20049;-81
2021/07/03 01:14:24;;;;;;;8.90;4.20;;;18.30;78.40;;;;;;5007435;28;20029;-81
2021/07/03 01:16:50;;;;;;;5.20;4.35;;;18.40;78.50;;;;;;5023145;28;20095;-80
2021/07/03 01:19:17;;;;;;;8.18;4.97;;;18.30;78.50;;;;;;5022974;28;20042;-79
2021/07/03 01:21:54;;;;;;;9.20;4.43;;;18.30;78.60;;;;;;5039774;28;20026;-79
2021/07/03 01:24:23;;;;;;;7.93;4.47;;;18.30;78.80;;;;;;5006714;28;20053;-81
2021/07/03 01:26:51;;;;;;;9.70;4.72;;;18.30;78.70;;;;;;5008083;28;20031;-81
2021/07/03 01:29:19;;;;;;;9.05;4.20;;;18.30;78.70;;;;;;5006506;28;20040;-81
2021/07/03 01:31:46;;;;;;;7.75;3.88;;;18.30;78.90;;;;;;5023160;28;20041;-79
2021/07/03 01:34:14;;;;;;;7.30;4.00;;;18.30;78.90;;;;;;5022938;28;20400;-80
2021/07/03 01:36:39;;;;;;;5.40;4.10;;;18.40;79.40;;;;;;5023171;28;20044;-80
2021/07/03 01:39:06;;;;;;;5.60;4.10;;;18.40;78.70;;;;;;5056236;28;20493;-79
2021/07/03 01:41:33;;;;;;;6.50;3.78;;;18.40;78.70;;;;;;5039606;28;20030;-78
2021/07/03 01:43:59;;;;;;;6.10;4.07;;;18.30;78.50;;;;;;5039416;28;20030;-81
2021/07/03 01:46:24;;;;;;;7.55;4.07;;;18.30;78.50;;;;;;5039393;28;20420;-81
2021/07/03 01:48:50;;;;;;;6.78;4.57;;;18.30;78.70;;;;;;5006403;28;20038;-78
2021/07/03 01:51:16;;;;;;;5.68;4.13;;;18.30;79.20;;;;;;5022941;28;20034;-81
2021/07/03 01:53:42;;;;;;;4.60;3.30;;;18.30;78.80;;;;;;5007817;28;20557;-80
2021/07/03 01:56:08;;;;;;;5.70;3.88;;;18.20;78.90;;;;;;5007734;28;20030;-78
2021/07/03 01:58:35;;;;;;;6.72;3.58;;;18.30;79.00;;;;;;5039509;28;20038;-81
2021/07/03 02:01:03;;;;;;;5.10;3.38;;;18.30;79.00;;;;;;5022634;28;20100;-80
2021/07/03 02:03:29;;;;;;;5.57;3.42;;;18.30;78.90;;;;;;5022489;28;20141;-81
2021/07/03 02:05:54;;;;;;;9.70;4.32;;;18.40;79.10;;;;;;5039366;28;20117;-80
2021/07/03 02:08:20;;;;;;;5.00;3.63;;;18.50;78.70;;;;;;5006212;28;20026;-80
2021/07/03 02:10:46;;;;;;;6.25;3.75;;;18.50;78.50;;;;;;5055938;28;20030;-81
2021/07/03 02:13:12;;;;;;;7.18;3.67;;;18.50;78.40;;;;;;5022756;28;20042;-80
2021/07/03 02:15:38;;;;;;;4.55;3.40;;;18.50;78.40;;;;;;5039333;28;20444;-80
2021/07/03 02:18:04;;;;;;;4.20;3.33;;;18.40;78.40;;;;;;5022676;28;20094;-80
2021/07/03 02:20:31;;;;;;;5.72;3.92;;;18.40;78.60;;;;;;5022516;28;20034;-80
2021/07/03 02:23:00;;;;;;;4.40;3.20;;;18.40;78.70;;;;;;5039048;28;20053;-80
2021/07/03 02:25:27;;;;;;;4.90;4.03;;;18.40;79.00;;;;;;5024211;28;20128;-81
2021/07/03 02:27:53;;;;;;;5.78;3.83;;;18.40;79.30;;;;;;5026234;28;20061;-79
2021/07/03 02:30:20;;;;;;;5.32;3.42;;;18.40;79.30;;;;;;5026047;28;20061;-81
2021/07/03 02:32:46;;;;;;;4.40;3.55;;;18.40;79.40;;;;;;5009893;28;20021;-80
2021/07/03 02:35:14;;;;;;;6.78;3.75;;;18.30;79.30;;;;;;5009598;28;20049;-81
2021/07/03 02:37:41;;;;;;;5.68;3.42;;;18.30;79.60;;;;;;5042576;28;20420;-81
2021/07/03 02:40:09;;;;;;;6.43;4.55;;;18.30;80.20;;;;;;5042453;28;20022;-80
2021/07/03 02:42:35;;;;;;;8.68;3.75;;;18.30;80.80;;;;;;5009456;28;20030;-80
2021/07/03 02:45:01;;;;;;;5.05;4.05;;;18.30;81.10;;;;;;5010764;28;20073;-80
2021/07/03 02:47:26;;;;;;;5.93;4.07;;;18.30;81.30;;;;;;5025689;28;20440;-80
2021/07/03 02:49:52;;;;;;;5.38;3.92;;;18.30;81.70;;;;;;5042606;28;20081;-79
2021/07/03 02:52:18;;;;;;;5.85;4.15;;;18.20;82.00;;;;;;5042234;28;20435;-79
2021/07/03 02:54:43;;;;;;;7.35;4.63;;;18.10;82.00;;;;;;5042349;28;20030;-80
2021/07/03 02:57:09;;;;;;;7.38;4.88;;;17.90;82.10;;;;;;5059027;28;20090;-79
2021/07/03 02:59:35;;;;;;;7.75;4.60;;;17.70;82.80;;;;;;5042142;28;20073;-79
2021/07/03 03:02:00;;;;;;;10.93;4.72;;;17.50;83.50;;;;;;5042554;28;20030;-80
2021/07/03 03:04:26;;;;;;;6.85;5.03;;;17.40;84.10;;;;;;5042350;28;20441;-81
2021/07/03 03:06:51;;;;;;;8.23;5.38;;;17.20;84.80;;;;;;5058907;28;20030;-80
2021/07/03 03:09:17;;;;;;;7.82;5.50;;;17.20;85.70;;;;;;5009020;28;20145;-80
2021/07/03 03:11:43;;;;;;;6.47;5.30;;;17.20;86.30;;;;;;5008998;28;20052;-81
2021/07/03 03:14:09;;;;;;;6.32;5.30;;;17.20;86.70;;;;;;5025466;28;20037;-81
2021/07/03 03:16:36;;;;;;;7.97;5.65;;;17.20;87.50;;;;;;5058530;28;20128;-81
2021/07/03 03:19:01;;;;;;;7.90;5.35;;;17.20;88.30;;;;;;5041862;28;20102;-79
2021/07/03 03:21:27;;;;;;;10.20;6.47;;;17.30;89.00;;;;;;5025200;28;20030;-81
2021/07/03 03:23:53;;;;;;;8.30;5.50;;;17.30;89.40;;;;;;5025105;28;20088;-80
2021/07/03 03:26:19;;;;;;;11.40;6.38;;;17.30;89.70;;;;;;5008926;28;20105;-80
2021/07/03 03:28:45;;;;;;;10.80;6.60;;;17.30;90.10;;;;;;5041788;28;20038;-80
2021/07/03 03:31:11;;;;;;;11.50;6.97;;;17.30;90.40;;;;;;5041774;28;20058;-80
2021/07/03 03:33:36;;;;;;;13.25;7.22;;;17.30;90.80;;;;;;5025031;28;20153;-80
2021/07/03 03:36:03;;;;;;;10.38;7.30;;;17.20;91.10;;;;;;5040813;28;20480;-81
2021/07/03 03:38:29;;;;;;;13.75;7.30;;;17.20;91.70;;;;;;5008578;28;20030;-79
2021/07/03 03:40:55;;;;;;;13.13;7.57;;;17.20;91.90;;;;;;5041264;28;20088;-81
2021/07/03 03:43:21;;;;;;;20.73;8.10;;;17.20;92.20;;;;;;5041584;28;20472;-81
2021/07/03 03:45:47;;;;;;;18.08;8.82;;;17.10;92.50;;;;;;5009707;28;20034;-81
2021/07/03 03:48:12;;;;;;;12.15;7.65;;;17.00;92.80;;;;;;5008370;28;20141;-81
2021/07/03 03:50:38;;;;;;;12.60;8.32;;;16.90;93.30;;;;;;5024647;28;20040;-81
2021/07/03 03:53:05;;;;;;;16.80;7.50;;;16.80;93.70;;;;;;5041194;28;20029;-80
2021/07/03 03:55:31;;;;;;;9.93;7.28;;;16.80;94.10;;;;;;5024555;28;20381;-80
2021/07/03 03:57:57;;;;;;;12.55;7.88;;;16.80;94.30;;;;;;5024379;28;20403;-80
2021/07/03 04:00:23;;;;;;;12.57;7.88;;;16.80;94.50;;;;;;5008106;28;20022;-80
2021/07/03 04:02:49;;;;;;;14.07;8.18;;;16.80;94.70;;;;;;5024401;28;20546;-80
2021/07/03 04:05:15;;;;;;;11.68;8.23;;;16.80;95.00;;;;;;5007908;28;20421;-80
2021/07/03 04:07:42;;;;;;;13.38;8.65;;;16.90;95.20;;;;;;5009180;28;20221;-81
2021/07/03 04:10:12;;;;;;;13.20;8.48;;;16.90;95.40;;;;;;5007741;28;20042;-80
2021/07/03 04:12:37;;;;;;;12.57;7.90;;;16.90;95.50;;;;;;5024220;28;20030;-81
2021/07/03 04:15:05;;;;;;;12.45;8.98;;;16.90;95.60;;;;;;5040631;28;20404;-80
2021/07/03 04:17:30;;;;;;;15.20;9.40;;;16.80;95.70;;;;;;5007767;28;20050;-81
2021/07/03 04:19:56;;;;;;;14.10;8.95;;;16.70;95.90;;;;;;5040715;28;20042;-81
2021/07/03 04:22:22;;;;;;;11.07;7.03;;;16.70;96.10;;;;;;5040785;28;20049;-80
2021/07/03 04:24:47;;;;;;;12.05;7.60;;;16.50;96.10;;;;;;5024269;28;20032;-79
2021/07/03 04:27:13;;;;;;;11.32;7.57;;;16.40;96.30;;;;;;5008803;28;20092;-80
2021/07/03 04:29:40;;;;;;;11.93;7.05;;;16.50;96.50;;;;;;5007243;28;20069;-80
2021/07/03 04:32:06;;;;;;;10.65;7.65;;;16.50;96.60;;;;;;5007126;28;20084;-79
2021/07/03 04:34:32;;;;;;;12.40;7.53;;;16.50;96.40;;;;;;5007296;28;20030;-81
2021/07/03 04:36:58;;;;;;;11.73;7.90;;;16.50;96.20;;;;;;5023714;28;20448;-80
2021/07/03 04:39:24;;;;;;;11.57;8.32;;;16.40;96.30;;;;;;5040062;28;20058;-80
2021/07/03 04:41:51;;;;;;;10.95;7.90;;;16.40;96.40;;;;;;5007063;28;20025;-80
2021/07/03 04:44:17;;;;;;;11.55;8.65;;;16.40;96.40;;;;;;5023445;28;20388;-80
2021/07/03 04:46:44;;;;;;;10.85;7.55;;;16.50;96.60;;;;;;5007112;28;20032;-81
2021/07/03 04:49:10;;;;;;;13.30;7.97;;;16.50;96.70;;;;;;5006159;28;20080;-78
2021/07/03 04:51:36;;;;;;;11.10;8.10;;;16.50;96.70;;;;;;5007389;28;20033;-81
2021/07/03 04:54:03;;;;;;;9.38;7.82;;;16.50;96.80;;;;;;5040332;28;20104;-80
2021/07/03 04:56:28;;;;;;;9.23;7.35;;;16.50;96.90;;;;;;5023322;28;20137;-81
2021/07/03 04:58:55;;;;;;;11.95;7.20;;;16.60;96.90;;;;;;5023409;28;20118;-80
2021/07/03 05:01:21;;;;;;;11.05;7.05;;;16.70;96.90;;;;;;5023310;28;20022;-80
2021/07/03 05:03:47;;;;;;;10.75;7.60;;;16.70;96.70;;;;;;5007174;28;20029;-81
2021/07/03 05:06:13;;;;;;;12.15;8.25;;;16.80;96.70;;;;;;5007007;28;20028;-81
2021/07/03 05:08:39;;;;;;;8.60;6.40;;;16.80;96.60;;;;;;5040000;28;20072;-81
2021/07/03 05:11:04;;;;;;;11.95;7.75;;;16.80;96.50;;;;;;5039969;28;20029;-81
2021/07/03 05:13:30;;;;;;;11.82;7.75;;;16.80;96.30;;;;;;5040459;28;20040;-81
2021/07/03 05:15:56;;;;;;;12.00;7.35;;;16.90;96.60;;;;;;5039786;28;20053;-81
2021/07/03 05:18:22;;;;;;;11.80;7.10;;;16.90;96.50;;;;;;5023044;28;20041;-81
2021/07/03 05:20:47;;;;;;;9.23;8.07;;;16.90;96.60;;;;;;5039639;28;20022;-81
2021/07/03 05:23:13;;;;;;;9.70;8.10;;;17.10;96.60;;;;;;5023152;28;20025;-80
2021/07/03 05:25:44;;;;;;;10.02;7.45;;;17.10;96.60;;;;;;5023150;28;20022;-81
2021/07/03 05:28:10;;;;;;;9.57;6.80;;;17.10;96.70;;;;;;5006817;28;20022;-81
2021/07/03 05:30:36;;;;;;;14.60;8.95;;;17.20;96.70;;;;;;5006625;28;20116;-79
2021/07/03 05:33:02;;;;;;;11.32;8.40;;;17.20;96.50;;;;;;5022927;28;20156;-80
2021/07/03 05:35:28;;;;;;;9.85;7.88;;;17.20;96.60;;;;;;5039679;28;20485;-81
2021/07/03 05:37:54;;;;;;;12.73;7.22;;;17.10;96.70;;;;;;5022655;28;20037;-81
2021/07/03 05:40:20;;;;;;;9.07;8.15;;;17.20;96.70;;;;;;5022685;28;20053;-81
2021/07/03 05:42:46;;;;;;;14.18;7.70;;;17.20;96.60;;;;;;5039388;28;20026;-80
2021/07/03 05:45:16;;;;;;;9.30;7.25;;;17.20;96.60;;;;;;5039410;28;20052;-81
2021/07/03 05:47:52;;;;;;;10.93;6.30;;;17.30;96.50;;;;;;5006376;28;20042;-81
2021/07/03 05:50:23;;;;;;;10.40;6.70;;;17.30;96.30;;;;;;5039400;28;20042;-80
2021/07/03 05:52:51;;;;;;;9.73;6.63;;;17.40;95.80;;;;;;5006579;28;20467;-82
2021/07/03 05:55:18;;;;;;;9.82;6.97;;;17.40;95.70;;;;;;5006237;28;20262;-80
2021/07/03 05:57:44;;;;;;;8.25;5.82;;;17.30;95.50;;;;;;5039266;28;20324;-81
2021/07/03 06:00:11;;;;;;;8.75;6.30;;;17.30;95.50;;;;;;5024356;28;20476;-82
2021/07/03 06:02:37;;;;;;;8.32;6.90;;;17.30;95.50;;;;;;5026664;28;20030;-80
2021/07/03 06:05:04;;;;;;;8.52;7.10;;;17.30;95.50;;;;;;5026634;28;20032;-82
2021/07/03 06:07:30;;;;;;;8.20;6.10;;;17.30;95.40;;;;;;5043192;28;20061;-81
2021/07/03 06:09:56;;;;;;;8.73;6.22;;;17.30;95.10;;;;;;5026419;28;20605;-81
2021/07/03 06:12:22;;;;;;;8.27;6.75;;;17.20;95.10;;;;;;5042918;28;20030;-81
2021/07/03 06:14:47;;;;;;;7.88;6.47;;;17.10;95.10;;;;;;5042811;28;20044;-82
2021/07/03 06:17:13;;;;;;;8.25;6.68;;;17.20;95.20;;;;;;5042954;28;20036;-81
2021/07/03 06:19:40;;;;;;;12.02;7.47;;;17.20;95.20;;;;;;5026072;28;20161;-81
2021/07/03 06:22:06;;;;;;;8.18;7.32;;;17.20;95.40;;;;;;5026469;28;20026;-81
2021/07/03 06:24:31;;;;;;;10.05;7.45;;;17.40;95.60;;;;;;5042861;28;20496;-80
2021/07/03 06:26:57;;;;;;;14.40;9.15;;;17.60;95.70;;;;;;5042751;28;20053;-81
2021/07/03 06:29:23;;;;;;;10.43;8.90;;;17.80;95.70;;;;;;5042632;28;20072;-81
2021/07/03 06:31:49;;;;;;;12.32;8.55;;;18.10;95.80;;;;;;5059436;28;20481;-81
2021/07/03 06:34:14;;;;;;;10.35;8.02;;;18.70;96.00;;;;;;5026056;28;20117;-81
2021/07/03 06:36:40;;;;;;;11.13;7.93;;;19.60;94.90;;;;;;5042702;28;20460;-81
2021/07/03 06:39:07;;;;;;;13.15;9.20;;;20.00;93.50;;;;;;5042309;28;20052;-82
2021/07/03 06:41:33;;;;;;;12.73;8.57;;;19.90;92.70;;;;;;5025587;28;20446;-82
2021/07/03 06:43:58;;;;;;;9.38;7.63;;;19.80;92.60;;;;;;5025833;28;20030;-82
2021/07/03 06:46:24;;;;;;;7.50;6.07;;;19.60;92.50;;;;;;5009525;28;20039;-82
2021/07/03 06:48:50;;;;;;;6.88;6.10;;;19.40;92.50;;;;;;5025716;28;20120;-80
2021/07/03 06:51:16;;;;;;;8.15;5.95;;;19.20;92.60;;;;;;5025753;28;20225;-81
2021/07/03 06:53:41;;;;;;;5.85;5.13;;;19.10;92.80;;;;;;5025624;28;20030;-82
2021/07/03 06:56:07;;;;;;;8.15;5.28;;;19.10;92.80;;;;;;5042554;28;20033;-81
2021/07/03 06:58:33;;;;;;;5.13;4.63;;;19.30;92.90;;;;;;5058890;28;20030;-80
2021/07/03 07:00:58;;;;;;;6.32;4.40;;;19.50;92.70;;;;;;5025643;28;20384;-82
2021/07/03 07:03:24;;;;;;;6.43;4.35;;;19.70;92.40;;;;;;5025513;28;20034;-82
2021/07/03 07:05:50;;;;;;;5.18;3.70;;;19.90;92.20;;;;;;5041821;28;20037;-82
2021/07/03 07:08:15;;;;;;;4.30;3.30;;;20.20;92.20;;;;;;5041857;28;20117;-81
2021/07/03 07:10:41;;;;;;;3.75;2.65;;;21.10;92.10;;;;;;5041190;28;20030;-81
2021/07/03 07:13:08;;;;;;;3.65;2.90;;;22.40;91.30;;;;;;5041285;28;20030;-80
2021/07/03 07:15:34;;;;;;;5.60;2.72;;;23.20;88.30;;;;;;5041422;28;20154;-81
2021/07/03 07:19:23;;;;;;;3.03;2.65;;;23.40;86.00;;;;;;5065210;27;20400;-80
2021/07/03 07:21:49;;;;;;;3.58;2.10;;;23.60;84.10;;;;;;5063546;28;20162;-79
2021/07/03 07:24:15;;;;;;;2.78;2.25;;;23.70;82.40;;;;;;5063325;28;20507;-80
2021/07/03 07:26:41;;;;;;;2.55;1.92;;;24.00;81.10;;;;;;5046607;28;20049;-80
2021/07/03 07:29:07;;;;;;;3.92;2.63;;;24.30;80.50;;;;;;5063243;28;20028;-81
2021/07/03 07:31:33;;;;;;;5.25;2.40;;;25.20;80.50;;;;;;5046475;28;20034;-81
2021/07/03 07:33:59;;;;;;;2.95;2.35;;;26.60;78.30;;;;;;5064454;28;20036;-80
2021/07/03 07:36:24;;;;;;;5.60;2.80;;;27.70;74.20;;;;;;5062781;28;20028;-81
2021/07/03 07:38:50;;;;;;;3.40;2.95;;;27.60;70.70;;;;;;5064181;28;20082;-80
2021/07/03 07:41:16;;;;;;;4.47;2.75;;;26.90;69.00;;;;;;5062994;28;20059;-81
2021/07/03 07:43:42;;;;;;;4.78;2.63;;;26.10;69.10;;;;;;5046342;28;20029;-79
2021/07/03 07:46:08;;;;;;;4.85;3.10;;;25.20;69.20;;;;;;5062844;28;20094;-81
2021/07/03 07:48:34;;;;;;;5.50;3.15;;;24.50;70.00;;;;;;5062771;28;20487;-81
2021/07/03 07:51:01;;;;;;;6.10;3.10;;;23.80;71.10;;;;;;5062768;28;20032;-79
2021/07/03 07:53:31;;;;;;;4.30;3.25;;;23.50;72.30;;;;;;5046127;28;20025;-79
2021/07/03 07:55:58;;;;;;;4.93;3.33;;;23.40;72.90;;;;;;5045974;28;20056;-79
2021/07/03 07:58:25;;;;;;;5.97;3.83;;;23.30;73.70;;;;;;5062245;28;20088;-80
2021/07/03 08:00:52;;;;;;;5.13;3.05;;;23.20;73.80;;;;;;5063588;28;20440;-81
2021/07/03 08:03:18;;;;;;;5.43;4.57;;;23.00;73.90;;;;;;5047617;28;20025;-80
2021/07/03 08:05:44;;;;;;;6.50;4.75;;;22.70;74.00;;;;;;5064301;28;20024;-79
2021/07/03 08:08:10;;;;;;;7.18;5.30;;;22.30;74.70;;;;;;5046728;28;20082;-80
2021/07/03 08:10:37;;;;;;;9.32;5.22;;;22.00;75.20;;;;;;5046822;28;20033;-78
2021/07/03 08:13:04;;;;;;;6.75;4.85;;;21.70;76.00;;;;;;5047353;28;20165;-79
2021/07/03 08:15:33;;;;;;;10.43;5.65;;;21.70;77.30;;;;;;5062638;28;20029;-81
2021/07/03 08:18:01;;;;;;;6.68;5.72;;;21.80;76.70;;;;;;5063299;28;20099;-82
2021/07/03 08:20:27;;;;;;;5.97;4.88;;;21.70;76.50;;;;;;5062645;28;20031;-79
2021/07/03 08:22:54;;;;;;;7.20;4.55;;;21.60;76.90;;;;;;5062274;28;20114;-81
2021/07/03 08:25:21;;;;;;;8.02;5.57;;;21.60;77.30;;;;;;5045792;28;20048;-80
2021/07/03 08:27:48;;;;;;;6.93;4.85;;;21.70;77.60;;;;;;5061885;28;20027;-80
2021/07/03 08:30:15;;;;;;;7.93;4.80;;;21.90;77.30;;;;;;5050406;28;20447;-79
2021/07/03 08:32:41;;;;;;;6.53;4.90;;;22.10;77.50;;;;;;5032208;28;20120;-80
2021/07/03 08:35:09;;;;;;;5.53;4.38;;;22.30;77.90;;;;;;5049041;28;20025;-80
2021/07/03 08:37:34;;;;;;;7.20;5.20;;;22.60;77.30;;;;;;5032034;28;20119;-80
2021/07/03 08:40:03;;;;;;;6.70;4.88;;;22.80;76.60;;;;;;5048406;28;20033;-81
2021/07/03 08:42:29;;;;;;;10.55;5.43;;;22.80;75.80;;;;;;5048800;28;20021;-80
2021/07/03 08:44:54;;;;;;;8.57;5.70;;;22.70;76.00;;;;;;5048831;28;20395;-84
2021/07/03 08:47:20;;;;;;;6.18;5.07;;;22.50;76.30;;;;;;5031628;28;20039;-80
2021/07/03 08:49:56;;;;;;;5.70;5.07;;;22.60;77.00;;;;;;5031843;28;20021;-80
2021/07/03 08:52:23;;;;;;;7.50;6.20;;;22.80;77.30;;;;;;5048558;28;20025;-80
2021/07/03 08:55:23;;;;;;;6.20;5.43;;;23.10;76.50;;;;;;5051029;28;20052;-80
2021/07/03 08:57:54;;;;;;;9.63;5.68;;;23.30;75.20;;;;;;5051442;28;20032;-79
2021/07/03 09:00:42;;;;;;;7.82;5.95;;;23.20;74.30;;;;;;5050131;28;20033;-79
2021/07/03 09:03:21;;;;;;;12.50;6.90;;;22.80;74.20;;;;;;5051834;28;20031;-80
2021/07/03 09:05:55;;;;;;;10.57;5.82;;;22.60;74.60;;;;;;5051654;28;20047;-80
2021/07/03 09:08:23;;;;;;;6.43;5.57;;;22.30;75.40;;;;;;5050249;28;20025;-78
2021/07/03 09:11:03;;;;;;;8.95;5.53;;;22.20;75.70;;;;;;5050052;28;20365;-79
2021/07/03 09:13:29;;;;;;;;;;;22.10;76.40;;;;;;5050401;28;20102;-81
2021/07/03 09:15:55;;;;;;;8.43;6.95;;;22.30;76.70;;;;;;5049571;28;19912;-79
2021/07/03 09:18:21;;;;;;;8.38;6.75;;;22.30;76.40;;;;;;5032792;28;20061;-82
2021/07/03 09:20:53;;;;;;;8.13;6.88;;;22.20;76.60;;;;;;5049827;28;20017;-80
2021/07/03 09:23:37;;;;;;;9.00;7.05;;;22.00;77.20;;;;;;5050062;28;20028;-79
2021/07/03 09:26:06;;;;;;;10.20;6.97;;;21.80;78.00;;;;;;5050247;28;20029;-79
2021/07/03 09:28:38;;;;;;;8.98;7.05;;;21.60;79.30;;;;;;5049328;28;20047;-80
2021/07/03 09:31:05;;;;;;;11.40;7.38;;;21.50;79.80;;;;;;5049754;28;20032;-83
2021/07/03 09:33:39;;;;;;;8.65;7.75;;;21.40;80.40;;;;;;5049621;28;20060;-81
2021/07/03 09:36:06;;;;;;;9.63;6.38;;;21.30;80.30;;;;;;5049598;28;20125;-81
2021/07/03 09:38:33;;;;;;;12.20;7.13;;;21.20;80.70;;;;;;5049574;28;20040;-80
2021/07/03 09:41:12;;;;;;;9.00;6.25;;;21.10;81.20;;;;;;5048781;28;20094;-81
2021/07/03 09:44:09;;;;;;;9.50;6.57;;;21.10;81.60;;;;;;5049172;28;20084;-81
2021/07/03 09:46:49;;;;;;;9.05;7.03;;;21.10;81.70;;;;;;5046953;28;20056;-80
2021/07/03 09:49:18;;;;;;;9.07;7.32;;;21.10;82.00;;;;;;5050656;28;20122;-79
2021/07/03 09:51:54;;;;;;;;;;;21.00;82.60;;;;;;5049860;28;20021;-78
2021/07/03 09:54:31;;;;;;;13.70;7.55;;;21.10;82.60;;;;;;5048977;28;19905;-81
2021/07/03 09:57:00;;;;;;;14.57;7.18;;;21.10;83.10;;;;;;5048820;28;20112;-79
2021/07/03 09:59:30;;;;;;;13.10;8.73;;;21.00;83.50;;;;;;5048721;28;20036;-80
2021/07/03 10:01:56;;;;;;;12.43;8.32;;;20.90;84.60;;;;;;5029966;28;20069;-78
2021/07/03 10:04:22;;;;;;;11.00;8.13;;;20.80;85.60;;;;;;5042835;28;20016;-82
2021/07/03 10:07:02;;;;;;;8.30;6.82;;;20.40;86.90;;;;;;5050859;28;20146;-78
2021/07/03 10:09:31;;;;;;;;;;;20.20;89.00;;;;;;5050395;28;20086;-81
2021/07/03 10:12:02;;;;;;;4.78;4.28;;;20.30;89.40;;;;;;5047880;28;20004;-77
2021/07/03 10:14:38;;;;;;;6.60;5.13;;;20.40;89.80;;;;;;5048149;28;20032;-79
2021/07/03 10:17:29;;;;;;;8.63;6.45;;;20.50;90.70;;;;;;5049778;28;20037;-79
2021/07/03 10:19:55;;;;;;;10.07;8.43;;;20.80;91.00;;;;;;5041343;28;20055;-80
2021/07/03 10:22:24;;;;;;;11.85;8.38;;;21.10;90.60;;;;;;5049979;28;20028;-80
2021/07/03 10:24:52;;;;;;;10.23;8.07;;;21.40;90.80;;;;;;5051550;28;20021;-80
2021/07/03 10:27:29;;;;;;;11.82;7.65;;;21.60;90.50;;;;;;5052003;28;20029;-80
2021/07/03 10:29:58;;;;;;;9.65;7.75;;;21.70;90.20;;;;;;5013287;28;20030;-81
2021/07/03 10:32:33;;;;;;;10.20;7.22;;;21.90;90.50;;;;;;5029936;28;20025;-81
2021/07/03 10:35:09;;;;;;;10.10;6.63;;;22.30;90.50;;;;;;5043395;28;20037;-83
2021/07/03 10:37:34;;;;;;;8.23;5.90;;;23.40;90.70;;;;;;5029987;28;20368;-80
2021/07/03 10:40:01;;;;;;;6.15;5.28;;;24.60;89.70;;;;;;5046423;28;20036;-82
2021/07/03 10:42:28;;;;;;;6.70;5.10;;;25.30;85.20;;;;;;5049716;28;20364;-82
2021/07/03 10:44:54;;;;;;;6.60;5.20;;;25.40;81.80;;;;;;5052801;28;20017;-81
2021/07/03 10:47:19;;;;;;;8.52;6.18;;;25.10;80.30;;;;;;5032071;28;20089;-82
2021/07/03 10:49:45;;;;;;;9.18;7.03;;;24.70;79.60;;;;;;5013118;28;20542;-82
2021/07/03 10:52:16;;;;;;;6.20;5.32;;;24.30;79.60;;;;;;5030015;28;20116;-82
2021/07/03 10:54:44;;;;;;;6.25;4.75;;;24.10;79.90;;;;;;5030936;28;20034;-82
2021/07/03 10:57:11;;;;;;;7.60;5.40;;;24.00;80.60;;;;;;5050131;28;20029;-78
2021/07/03 10:59:38;;;;;;;6.10;5.00;;;24.60;82.00;;;;;;5049567;28;20082;-81
2021/07/03 11:02:18;;;;;;;8.63;5.35;;;25.60;80.70;;;;;;5049134;28;20030;-81
2021/07/03 11:04:48;;;;;;;6.72;6.03;;;26.60;78.30;;;;;;5048570;28;20017;-78
2021/07/03 11:07:19;;;;;;;7.75;6.22;;;26.80;74.70;;;;;;5048594;28;20046;-81
2021/07/03 11:09:46;;;;;;;14.60;7.20;;;26.20;73.30;;;;;;5049307;28;20025;-79
2021/07/03 11:12:13;;;;;;;10.65;6.25;;;25.80;74.20;;;;;;5047947;28;20051;-82
2021/07/03 11:14:40;;;;;;;8.07;5.70;;;25.70;74.70;;;;;;5047876;28;20032;-82
2021/07/03 11:17:06;;;;;;;8.70;6.97;;;25.90;74.70;;;;;;5047382;28;20762;-80
2021/07/03 11:19:32;;;;;;;10.27;7.53;;;26.00;74.20;;;;;;5047798;28;20039;-78
2021/07/03 11:22:07;;;;;;;8.70;6.78;;;26.10;73.60;;;;;;5031624;28;20040;-79
2021/07/03 11:24:51;;;;;;;8.32;7.50;;;26.10;72.10;;;;;;5050221;28;20598;-78
2021/07/03 11:27:35;;;;;;;10.20;6.45;;;25.70;71.30;;;;;;5047913;28;20052;-78
2021/07/03 11:30:07;;;;;;;9.07;6.45;;;25.20;71.90;;;;;;5075889;28;20028;-77
2021/07/03 11:32:33;;;;;;;11.65;6.60;;;24.70;72.60;;;;;;5049795;28;20036;-77
2021/07/03 11:35:01;;;;;;;9.93;5.82;;;24.40;73.10;;;;;;5029315;28;20388;-79
2021/07/03 11:37:35;;;;;;;8.25;6.95;;;24.30;73.70;;;;;;5049082;28;20491;-78
2021/07/03 11:40:05;;;;;;;9.95;6.97;;;24.20;74.00;;;;;;5048360;28;20063;-79
2021/07/03 11:42:37;;;;;;;9.73;6.40;;;24.10;74.30;;;;;;5047834;28;20029;-79
2021/07/03 11:45:06;;;;;;;15.63;9.45;;;24.00;74.30;;;;;;5050273;28;20017;-80
2021/07/03 11:47:32;;;;;;;;;;;23.90;74.40;;;;;;5050441;28;20017;-81
2021/07/03 11:49:58;;;;;;;6.93;5.45;;;24.00;74.80;;;;;;5049022;28;20382;-80
2021/07/03 11:52:23;;;;;;;6.30;3.90;;;24.30;74.80;;;;;;5048398;28;20024;-81
2021/07/03 11:54:49;;;;;;;4.97;2.65;;;24.80;75.20;;;;;;5028864;28;20028;-80
2021/07/03 11:57:15;;;;;;;4.63;2.58;;;25.40;74.10;;;;;;5029163;28;20116;-80
2021/07/03 11:59:41;;;;;;;2.75;1.80;;;26.20;73.80;;;;;;5013544;28;20385;-81
2021/07/03 12:02:08;;;;;;;2.75;1.58;;;27.10;72.20;;;;;;5032014;28;20075;-79
2021/07/03 12:04:34;;;;;;;2.70;1.40;;;27.60;68.90;;;;;;5034258;28;20060;-81
2021/07/03 12:07:01;;;;;;;1.85;1.58;;;27.60;67.80;;;;;;5036009;28;20053;-81
2021/07/03 12:09:34;;;;;;;2.25;1.38;;;27.60;67.00;;;;;;5052288;28;20040;-78
2021/07/03 12:12:00;;;;;;;1.65;1.17;;;27.40;66.50;;;;;;5053720;28;20029;-79
2021/07/03 12:14:26;;;;;;;1.33;1.02;;;27.30;66.30;;;;;;5035667;28;20035;-80
2021/07/03 12:16:57;;;;;;;1.23;0.98;;;27.20;66.00;;;;;;5053169;28;20886;-79
2021/07/03 12:19:24;;;;;;;1.73;1.27;;;27.10;65.60;;;;;;5052480;28;20025;-80
2021/07/03 12:21:50;;;;;;;1.02;0.93;;;27.00;65.80;;;;;;5052323;28;20025;-81
2021/07/03 12:24:16;;;;;;;2.85;1.27;;;27.00;65.80;;;;;;5051051;28;20112;-80
2021/07/03 12:26:49;;;;;;;0.90;0.80;;;27.10;65.50;;;;;;5034298;28;20052;-81
2021/07/03 12:29:26;;;;;;;1.13;0.93;;;27.10;65.10;;;;;;5051787;28;20021;-78
2021/07/03 12:31:52;;;;;;;1.20;0.98;;;27.30;65.40;;;;;;5050558;28;20056;-80
2021/07/03 12:34:25;;;;;;;2.13;1.40;;;27.50;65.50;;;;;;5050350;28;20122;-79
2021/07/03 12:36:52;;;;;;;6.50;1.42;;;27.70;65.10;;;;;;5050822;28;20033;-79
2021/07/03 12:39:23;;;;;;;5.68;1.50;;;27.80;65.00;;;;;;5050783;28;20025;-78
2021/07/03 12:42:07;;;;;;;3.13;1.50;;;27.80;64.40;;;;;;5052322;28;20021;-79
2021/07/03 12:44:47;;;;;;;2.90;1.85;;;27.70;64.40;;;;;;5052807;28;20088;-79
2021/07/03 12:47:17;;;;;;;8.70;1.50;;;27.40;64.40;;;;;;5051854;28;20031;-80
2021/07/03 12:50:04;;;;;;;4.93;1.77;;;27.50;65.50;;;;;;5050509;28;20025;-81